Thornhill, United Kingdom
Current Conditions -  °F | °C
As of 7:20 AM on Saturday 29 Nov 2014 (Local Time) from EGPK Reporting Station
Scattered Clouds Scattered Clouds  
Wind Chill: 46°   Ceiling: Unl
Heat Index: 48°   Visibility: 6mi
Dew Point: 45°   Wind: 5mph
Humidity: 87%   Direction: 40°NE
Pressure: 29.83"   Gusts: NA
Location:  55.23°N, 3.77°W
Report Text: EGPK 290720Z 04004KT 9999 SCT016 09/07 Q1010
Loading
Personal Weather Stations






























Interactive Weather Map New forecast layout! Learn more

10-Day Weather Forecast

Advertisements
Track Severe Weather on mobile